Time;durP1;ratioP1;P1;durP2;ratioP2;P2;SDS_P1;SDS_P2;PMS_P1;PMS_P2;Temp;Humidity;BMP_temperature;BMP_pressure;BME280_temperature;BME280_humidity;BME280_pressure;Samples;Min_cycle;Max_cycle;Signal;HPM_P1;HPM_P2
2022/03/06 00:00:12;;;;;;;4.07;3.78;;;21.80;32.90;;;;;;4992614;28;20061;-62
2022/03/06 00:02:37;;;;;;;3.95;3.65;;;21.70;32.80;;;;;;4993871;28;20045;-61
2022/03/06 00:05:05;;;;;;;3.95;3.65;;;21.70;32.70;;;;;;4995730;28;20681;-61
2022/03/06 00:07:30;;;;;;;4.32;3.92;;;21.70;32.70;;;;;;4995556;28;20088;-61
2022/03/06 00:09:56;;;;;;;4.70;4.03;;;21.70;32.70;;;;;;4992936;28;20077;-61
2022/03/06 00:12:21;;;;;;;4.25;3.85;;;21.70;32.70;;;;;;4989400;28;20049;-62
2022/03/06 00:14:47;;;;;;;4.07;3.67;;;21.60;32.60;;;;;;4992608;28;20505;-61
2022/03/06 00:17:13;;;;;;;4.10;3.70;;;21.60;32.60;;;;;;4981204;28;20370;-61
2022/03/06 00:19:38;;;;;;;3.90;3.60;;;21.60;32.80;;;;;;4992258;28;20041;-61
2022/03/06 00:22:04;;;;;;;3.53;3.22;;;21.60;32.70;;;;;;4991967;28;20049;-61
2022/03/06 00:24:29;;;;;;;3.90;3.60;;;21.60;32.60;;;;;;4987910;28;20052;-61
2022/03/06 00:26:55;;;;;;;4.30;3.90;;;21.50;32.50;;;;;;4990222;28;20046;-61
2022/03/06 00:29:21;;;;;;;4.43;4.03;;;21.50;32.60;;;;;;4991501;28;20042;-61
2022/03/06 00:31:46;;;;;;;4.05;3.65;;;21.50;33.40;;;;;;4991772;28;20045;-61
2022/03/06 00:34:12;;;;;;;3.90;3.60;;;21.50;32.70;;;;;;4975957;28;20049;-62
2022/03/06 00:36:37;;;;;;;4.35;3.95;;;21.50;32.80;;;;;;4993617;28;20406;-61
2022/03/06 00:39:07;;;;;;;3.95;3.65;;;21.50;32.80;;;;;;4988740;28;20046;-61
2022/03/06 00:41:33;;;;;;;4.43;4.03;;;21.50;32.70;;;;;;4990814;28;20069;-62
2022/03/06 00:43:58;;;;;;;4.35;3.80;;;21.50;32.80;;;;;;4995899;28;20803;-61
2022/03/06 00:46:24;;;;;;;3.85;3.47;;;21.50;32.60;;;;;;4994082;28;20062;-61
2022/03/06 00:48:50;;;;;;;4.13;3.50;;;21.50;32.70;;;;;;4992600;28;20046;-61
2022/03/06 00:51:16;;;;;;;3.92;3.60;;;21.50;32.60;;;;;;4994594;28;20053;-61
2022/03/06 00:53:43;;;;;;;4.50;4.10;;;21.50;32.60;;;;;;4989464;28;20050;-62
2022/03/06 00:56:09;;;;;;;3.65;3.42;;;21.40;32.50;;;;;;4992177;28;20156;-61
2022/03/06 00:58:35;;;;;;;3.60;3.30;;;21.40;32.70;;;;;;4991902;28;20054;-61
2022/03/06 01:01:01;;;;;;;3.83;3.50;;;21.40;32.60;;;;;;4992362;28;20046;-61
2022/03/06 01:03:27;;;;;;;4.13;3.72;;;21.40;32.60;;;;;;4991096;28;20057;-60
2022/03/06 01:05:52;;;;;;;4.00;3.70;;;21.40;32.70;;;;;;4990875;28;20161;-61
2022/03/06 01:08:18;;;;;;;4.00;3.67;;;21.40;32.70;;;;;;4990970;28;20165;-60
2022/03/06 01:10:46;;;;;;;3.83;3.47;;;21.30;32.60;;;;;;4990970;28;20122;-61
2022/03/06 01:13:12;;;;;;;4.53;4.13;;;21.30;32.70;;;;;;4992301;28;20557;-61
2022/03/06 01:15:38;;;;;;;4.43;3.97;;;21.30;32.60;;;;;;4992799;28;20050;-61
2022/03/06 01:18:08;;;;;;;4.20;3.53;;;21.30;32.60;;;;;;4991813;28;20049;-61
2022/03/06 01:20:35;;;;;;;3.83;3.50;;;21.30;32.70;;;;;;4991114;28;20128;-61
2022/03/06 01:23:02;;;;;;;4.03;3.63;;;21.20;32.60;;;;;;4990560;28;20080;-61
2022/03/06 01:25:27;;;;;;;4.18;3.55;;;21.30;32.70;;;;;;4991535;28;20140;-60
2022/03/06 01:27:53;;;;;;;4.18;3.78;;;21.20;32.60;;;;;;4991050;28;20157;-60
2022/03/06 01:30:21;;;;;;;4.13;3.83;;;21.20;32.60;;;;;;4974737;28;20049;-61
2022/03/06 01:32:51;;;;;;;3.55;3.25;;;21.20;32.70;;;;;;4991773;28;20057;-61
2022/03/06 01:35:16;;;;;;;3.80;3.45;;;21.20;32.60;;;;;;4988648;28;20045;-60
2022/03/06 01:37:42;;;;;;;3.55;3.25;;;21.20;32.60;;;;;;4991947;28;20136;-60
2022/03/06 01:40:09;;;;;;;4.15;3.75;;;21.20;32.60;;;;;;4993056;28;20493;-60
2022/03/06 01:42:39;;;;;;;3.70;3.40;;;21.10;32.60;;;;;;4992715;28;20054;-61
2022/03/06 01:45:06;;;;;;;3.80;3.50;;;21.20;32.60;;;;;;4991735;28;20046;-60
2022/03/06 01:47:39;;;;;;;4.32;3.67;;;21.10;32.60;;;;;;4991244;28;20180;-60
2022/03/06 01:50:08;;;;;;;4.10;3.70;;;21.10;32.80;;;;;;4989101;28;20046;-60
2022/03/06 01:52:34;;;;;;;4.45;3.50;;;21.10;32.60;;;;;;4992079;28;20068;-61
2022/03/06 01:54:59;;;;;;;3.80;3.50;;;21.10;32.50;;;;;;4993803;28;20046;-60
2022/03/06 01:57:26;;;;;;;3.70;3.40;;;21.10;32.60;;;;;;4990786;28;20049;-60
2022/03/06 01:59:52;;;;;;;3.63;3.33;;;21.10;32.50;;;;;;4989910;28;20137;-60
2022/03/06 02:02:18;;;;;;;3.83;3.35;;;21.00;32.50;;;;;;4995057;28;20042;-60
2022/03/06 02:04:44;;;;;;;3.70;3.40;;;21.00;32.50;;;;;;4993465;28;20052;-60
2022/03/06 02:07:09;;;;;;;3.85;3.40;;;21.00;32.50;;;;;;5008910;28;20038;-61
2022/03/06 02:09:35;;;;;;;3.60;3.30;;;21.00;32.50;;;;;;4993442;28;20057;-60
2022/03/06 02:14:46;;;;;;;3.30;3.00;;;21.00;32.40;;;;;;4994219;28;20100;-61
2022/03/06 02:17:11;;;;;;;3.90;3.38;;;20.90;32.50;;;;;;4991763;28;20137;-60
2022/03/06 02:20:07;;;;;;;3.92;3.53;;;21.00;32.50;;;;;;4997487;28;20449;-60
2022/03/06 02:22:34;;;;;;;4.35;3.17;;;20.90;32.40;;;;;;4995994;28;20062;-60
2022/03/06 02:25:04;;;;;;;3.40;3.10;;;20.90;32.50;;;;;;4993435;28;20410;-60
2022/03/06 02:27:29;;;;;;;3.75;3.40;;;20.90;32.50;;;;;;4996205;28;20042;-60
2022/03/06 02:29:55;;;;;;;3.75;3.45;;;20.90;32.40;;;;;;4993715;28;20052;-61
2022/03/06 02:32:22;;;;;;;3.40;3.10;;;20.90;32.50;;;;;;4993131;28;20160;-60
2022/03/06 02:34:50;;;;;;;3.55;3.13;;;20.90;32.50;;;;;;4993325;28;20038;-60
2022/03/06 02:37:20;;;;;;;3.65;3.35;;;20.90;32.40;;;;;;4994983;28;20050;-61
2022/03/06 02:39:47;;;;;;;3.55;3.22;;;20.80;32.30;;;;;;4992467;28;20046;-60
2022/03/06 02:42:27;;;;;;;3.72;3.15;;;20.80;32.30;;;;;;4993588;28;20042;-61
2022/03/06 02:44:54;;;;;;;3.40;3.10;;;20.90;32.30;;;;;;4995515;28;20077;-60
2022/03/06 02:47:20;;;;;;;3.30;3.10;;;20.80;32.30;;;;;;4975225;28;20831;-60
2022/03/06 02:49:46;;;;;;;3.38;3.08;;;20.80;32.40;;;;;;4993612;28;20133;-61
2022/03/06 02:52:12;;;;;;;3.17;2.75;;;20.80;32.40;;;;;;4995179;28;20516;-60
2022/03/06 02:54:37;;;;;;;3.38;3.08;;;20.80;32.30;;;;;;5008227;28;20112;-60
2022/03/06 02:57:04;;;;;;;3.70;3.40;;;20.80;32.30;;;;;;4994299;28;20101;-60
2022/03/06 02:59:30;;;;;;;3.85;2.63;;;20.80;32.30;;;;;;4992193;28;20046;-60
2022/03/06 03:01:56;;;;;;;3.67;3.25;;;20.70;32.30;;;;;;4987254;28;20048;-61
2022/03/06 03:04:21;;;;;;;3.50;2.88;;;20.70;32.30;;;;;;4991628;28;20117;-61
2022/03/06 03:06:51;;;;;;;4.13;3.38;;;20.70;32.30;;;;;;4989826;28;20053;-60
2022/03/06 03:09:21;;;;;;;3.20;3.00;;;20.70;32.30;;;;;;4991901;28;20058;-60
2022/03/06 03:11:48;;;;;;;3.10;2.80;;;20.70;32.30;;;;;;4994076;28;20292;-61
2022/03/06 03:14:14;;;;;;;3.25;3.03;;;20.70;32.30;;;;;;4992977;28;20046;-60
2022/03/06 03:16:40;;;;;;;2.95;2.72;;;20.70;32.30;;;;;;4994976;28;20053;-61
2022/03/06 03:19:06;;;;;;;3.30;2.67;;;20.60;32.20;;;;;;4993044;28;20125;-60
2022/03/06 03:21:32;;;;;;;2.90;2.70;;;20.60;32.20;;;;;;4992116;28;20127;-60
2022/03/06 03:23:58;;;;;;;3.60;2.83;;;20.60;32.20;;;;;;4993932;28;20050;-60
2022/03/06 03:26:23;;;;;;;3.20;2.90;;;20.60;32.20;;;;;;4994331;28;20073;-60
2022/03/06 03:28:49;;;;;;;3.20;2.90;;;20.60;32.20;;;;;;4993541;28;20460;-60
2022/03/06 03:31:15;;;;;;;3.58;3.00;;;20.60;32.20;;;;;;4994026;28;20060;-60
2022/03/06 03:33:40;;;;;;;3.13;2.80;;;20.60;32.30;;;;;;4994390;28;20046;-61
2022/03/06 03:36:06;;;;;;;2.90;2.70;;;20.60;32.40;;;;;;4993938;28;20045;-61
2022/03/06 03:38:31;;;;;;;3.35;3.05;;;20.60;32.30;;;;;;4992634;28;20049;-61
2022/03/06 03:40:57;;;;;;;3.38;2.97;;;20.50;32.20;;;;;;4994255;28;20042;-61
2022/03/06 03:43:23;;;;;;;3.10;2.50;;;20.50;32.20;;;;;;4988243;28;20050;-61
2022/03/06 03:45:49;;;;;;;3.42;3.13;;;20.50;32.20;;;;;;4993280;28;20042;-61
2022/03/06 03:48:15;;;;;;;5.57;2.47;;;20.50;32.20;;;;;;4993728;28;20045;-61
2022/03/06 03:50:40;;;;;;;2.80;2.60;;;20.50;32.20;;;;;;4989596;28;20157;-60
2022/03/06 03:53:06;;;;;;;2.88;2.67;;;20.50;32.20;;;;;;4992985;28;20046;-61
2022/03/06 03:55:31;;;;;;;3.10;2.75;;;20.50;32.20;;;;;;4992759;28;20054;-61
2022/03/06 03:57:57;;;;;;;2.78;2.58;;;20.50;32.20;;;;;;4992648;28;20043;-61
2022/03/06 04:00:23;;;;;;;2.88;2.67;;;20.50;32.20;;;;;;4993231;28;20104;-61
2022/03/06 04:02:48;;;;;;;3.10;2.60;;;20.50;32.20;;;;;;4997605;28;20046;-61
2022/03/06 04:05:14;;;;;;;2.75;2.47;;;20.40;32.20;;;;;;4994783;28;20632;-61
2022/03/06 04:07:39;;;;;;;2.88;2.60;;;20.40;32.20;;;;;;4990483;28;20527;-61
2022/03/06 04:10:05;;;;;;;3.03;2.30;;;20.40;32.20;;;;;;4987697;28;20557;-60
2022/03/06 04:12:31;;;;;;;2.50;2.25;;;20.40;32.20;;;;;;4992203;28;20064;-60
2022/03/06 04:14:57;;;;;;;3.00;2.30;;;20.40;32.20;;;;;;4992781;28;20072;-60
2022/03/06 04:17:22;;;;;;;2.45;2.10;;;20.40;32.20;;;;;;4995501;28;20524;-61
2022/03/06 04:19:48;;;;;;;3.80;2.47;;;20.40;32.30;;;;;;4993276;28;20042;-60
2022/03/06 04:22:13;;;;;;;3.00;2.38;;;20.40;32.20;;;;;;4991882;28;20115;-61
2022/03/06 04:24:39;;;;;;;2.83;2.63;;;20.40;32.30;;;;;;4988360;28;20046;-60
2022/03/06 04:27:05;;;;;;;2.40;2.20;;;20.30;32.20;;;;;;4993451;28;20042;-61
2022/03/06 04:29:30;;;;;;;3.40;2.40;;;20.40;32.20;;;;;;4991252;28;20683;-60
2022/03/06 04:31:56;;;;;;;2.53;2.33;;;20.30;32.20;;;;;;4990426;28;20105;-61
2022/03/06 04:34:22;;;;;;;2.25;2.03;;;20.30;32.30;;;;;;4992417;28;20119;-60
2022/03/06 04:36:48;;;;;;;2.85;2.38;;;20.30;32.20;;;;;;4993989;28;20545;-60
2022/03/06 04:39:14;;;;;;;2.85;2.63;;;20.30;32.20;;;;;;4990303;28;20129;-60
2022/03/06 04:41:39;;;;;;;2.80;2.38;;;20.30;32.10;;;;;;5006100;28;20038;-60
2022/03/06 04:44:05;;;;;;;2.35;2.15;;;20.30;32.20;;;;;;4992187;28;20367;-60
2022/03/06 04:46:31;;;;;;;2.40;2.15;;;20.30;32.20;;;;;;4994423;28;20394;-60
2022/03/06 04:48:57;;;;;;;2.40;2.15;;;20.30;32.20;;;;;;4992723;28;20072;-61
2022/03/06 04:51:23;;;;;;;2.40;2.20;;;20.30;32.20;;;;;;4993537;28;20073;-61
2022/03/06 04:53:49;;;;;;;2.72;2.47;;;20.20;32.10;;;;;;4987616;28;20054;-61
2022/03/06 04:56:14;;;;;;;2.50;2.30;;;20.20;32.10;;;;;;4990965;28;20049;-60
2022/03/06 04:58:40;;;;;;;2.40;2.20;;;20.20;32.10;;;;;;4991810;28;20049;-60
2022/03/06 05:01:06;;;;;;;2.25;1.98;;;20.20;32.10;;;;;;4988365;28;20153;-61
2022/03/06 05:03:32;;;;;;;2.50;2.30;;;20.20;32.10;;;;;;4990961;28;20085;-61
2022/03/06 05:05:58;;;;;;;2.50;2.30;;;20.20;32.10;;;;;;4986804;28;20099;-61
2022/03/06 05:08:26;;;;;;;2.55;2.33;;;20.20;32.10;;;;;;4992305;28;20046;-61
2022/03/06 05:10:53;;;;;;;2.47;2.17;;;20.20;32.20;;;;;;4991262;28;20054;-60
2022/03/06 05:13:19;;;;;;;2.40;2.20;;;20.20;32.10;;;;;;4991647;28;20046;-61
2022/03/06 05:15:44;;;;;;;3.50;2.10;;;20.10;32.10;;;;;;4992296;28;20611;-60
2022/03/06 05:18:11;;;;;;;2.10;1.95;;;20.10;32.00;;;;;;4994196;28;20054;-61
2022/03/06 05:20:37;;;;;;;2.40;2.17;;;20.10;32.10;;;;;;4986326;28;20059;-60
2022/03/06 05:23:03;;;;;;;2.08;1.88;;;20.10;32.00;;;;;;4991460;28;20050;-61
2022/03/06 05:25:28;;;;;;;2.25;2.05;;;20.10;32.10;;;;;;4975864;28;20520;-61
2022/03/06 05:27:54;;;;;;;2.40;2.20;;;20.10;32.00;;;;;;5006493;28;20033;-61
2022/03/06 05:30:20;;;;;;;3.20;2.00;;;20.10;32.00;;;;;;4998700;28;20141;-60
2022/03/06 05:32:45;;;;;;;2.28;2.00;;;20.10;32.10;;;;;;4992661;28;20039;-61
2022/03/06 05:35:11;;;;;;;2.50;2.30;;;20.10;32.10;;;;;;4990771;28;20053;-61
2022/03/06 05:37:38;;;;;;;2.10;1.90;;;20.10;32.10;;;;;;4995085;28;20066;-61
2022/03/06 05:40:04;;;;;;;3.15;2.00;;;20.10;32.10;;;;;;4994417;28;20464;-61
2022/03/06 05:42:30;;;;;;;2.20;1.95;;;20.00;32.10;;;;;;4995420;28;20045;-61
2022/03/06 05:44:56;;;;;;;2.20;2.00;;;20.10;32.10;;;;;;4995691;28;20400;-60
2022/03/06 05:47:21;;;;;;;2.55;2.00;;;20.10;32.00;;;;;;4994353;28;20140;-61
2022/03/06 05:49:47;;;;;;;2.00;1.80;;;20.10;32.10;;;;;;4991898;28;20814;-60
2022/03/06 05:52:12;;;;;;;2.97;2.03;;;20.10;32.10;;;;;;4996482;28;20705;-61
2022/03/06 05:54:38;;;;;;;2.42;2.00;;;20.00;32.10;;;;;;4995649;28;20100;-60
2022/03/06 05:57:04;;;;;;;2.83;1.60;;;20.10;32.10;;;;;;4995826;28;20053;-61
2022/03/06 05:59:30;;;;;;;1.92;1.83;;;20.10;32.10;;;;;;4995468;28;20042;-61
2022/03/06 06:01:55;;;;;;;2.10;1.85;;;20.00;32.00;;;;;;4998068;28;20059;-61
2022/03/06 06:04:21;;;;;;;2.25;2.05;;;20.10;32.00;;;;;;4994040;28;20042;-61
2022/03/06 06:06:46;;;;;;;2.28;1.77;;;20.00;32.10;;;;;;4996049;28;20050;-61
2022/03/06 06:09:12;;;;;;;1.88;1.63;;;20.00;32.20;;;;;;4997934;28;20046;-62
2022/03/06 06:11:38;;;;;;;2.30;1.90;;;20.00;32.20;;;;;;5000068;28;20038;-61
2022/03/06 06:14:04;;;;;;;2.10;1.90;;;20.00;32.20;;;;;;4995093;28;20050;-60
2022/03/06 06:16:30;;;;;;;1.90;1.80;;;20.00;32.20;;;;;;4995240;28;20132;-60
2022/03/06 06:18:56;;;;;;;2.17;1.90;;;20.00;32.20;;;;;;4998074;28;20053;-60
2022/03/06 06:21:21;;;;;;;2.35;2.10;;;20.00;32.20;;;;;;4993986;28;20045;-60
2022/03/06 06:23:47;;;;;;;2.00;1.90;;;20.00;32.20;;;;;;4996637;28;20045;-61
2022/03/06 06:26:12;;;;;;;3.55;1.95;;;19.90;32.10;;;;;;4994381;28;20050;-61
2022/03/06 06:28:38;;;;;;;2.50;1.73;;;19.90;32.10;;;;;;4995534;28;20046;-61
2022/03/06 06:31:06;;;;;;;2.78;1.70;;;19.90;32.20;;;;;;4996885;28;20621;-62
2022/03/06 06:33:32;;;;;;;3.28;2.00;;;19.90;32.30;;;;;;4989361;28;20042;-61
2022/03/06 06:35:58;;;;;;;4.07;1.90;;;20.00;32.60;;;;;;4992899;28;20058;-62
2022/03/06 06:38:24;;;;;;;4.00;1.80;;;20.00;32.70;;;;;;4991412;28;20109;-61
2022/03/06 06:40:50;;;;;;;2.60;1.63;;;20.00;33.00;;;;;;4995934;28;20214;-62
2022/03/06 06:43:17;;;;;;;2.22;1.73;;;20.00;33.00;;;;;;4995553;28;20050;-61
2022/03/06 06:45:43;;;;;;;3.38;1.70;;;20.00;33.00;;;;;;4995297;28;20050;-61
2022/03/06 06:48:08;;;;;;;2.85;1.80;;;20.00;33.00;;;;;;4990670;28;20081;-61
2022/03/06 06:50:34;;;;;;;2.47;1.75;;;20.00;33.00;;;;;;4995373;28;20132;-61
2022/03/06 06:52:59;;;;;;;1.77;1.55;;;20.00;33.00;;;;;;4995038;28;20525;-62
2022/03/06 06:55:25;;;;;;;1.77;1.67;;;20.10;33.00;;;;;;4993436;28;20093;-62
2022/03/06 06:57:51;;;;;;;3.38;1.63;;;20.10;33.00;;;;;;4993408;28;20077;-61
2022/03/06 07:00:16;;;;;;;1.70;1.50;;;20.00;33.00;;;;;;4989711;28;20045;-61
2022/03/06 07:02:42;;;;;;;3.70;1.60;;;20.10;33.10;;;;;;4993538;28;20050;-62
2022/03/06 07:05:09;;;;;;;1.52;1.20;;;20.10;33.20;;;;;;4993826;28;20058;-61
2022/03/06 07:07:35;;;;;;;2.45;1.50;;;20.10;33.20;;;;;;4994583;28;20050;-61
2022/03/06 07:10:01;;;;;;;5.70;1.75;;;20.10;33.20;;;;;;4995160;28;20112;-61
2022/03/06 07:12:26;;;;;;;3.05;1.60;;;20.10;34.00;;;;;;4993595;28;20472;-61
2022/03/06 07:14:52;;;;;;;1.60;1.50;;;20.10;33.30;;;;;;4991988;28;20068;-61
2022/03/06 07:17:17;;;;;;;1.60;1.30;;;20.10;33.30;;;;;;4994331;28;20046;-61
2022/03/06 07:19:44;;;;;;;3.05;1.38;;;20.10;33.40;;;;;;5009852;28;20064;-61
2022/03/06 07:22:10;;;;;;;3.25;1.65;;;20.10;33.50;;;;;;4982449;28;20485;-61
2022/03/06 07:24:35;;;;;;;1.67;1.00;;;20.10;33.60;;;;;;4983287;28;20073;-61
2022/03/06 07:27:01;;;;;;;2.35;1.30;;;20.10;33.70;;;;;;4990620;28;20046;-61
2022/03/06 07:29:26;;;;;;;2.38;1.58;;;20.20;33.90;;;;;;4990514;28;20045;-61
2022/03/06 07:31:52;;;;;;;2.40;1.23;;;20.20;33.80;;;;;;4990513;28;20047;-61
2022/03/06 07:34:18;;;;;;;1.65;1.42;;;20.20;33.90;;;;;;4991558;28;20076;-61
2022/03/06 07:36:43;;;;;;;3.58;1.30;;;20.20;34.00;;;;;;4994091;28;20050;-62
2022/03/06 07:39:09;;;;;;;1.50;1.13;;;20.20;34.00;;;;;;4993817;28;20050;-61
2022/03/06 07:41:34;;;;;;;1.33;1.20;;;20.20;34.10;;;;;;4989834;28;20073;-61
2022/03/06 07:44:00;;;;;;;1.10;1.00;;;20.20;34.10;;;;;;4984987;28;20037;-62
2022/03/06 07:46:25;;;;;;;2.40;1.40;;;20.20;34.10;;;;;;4991873;28;20097;-61
2022/03/06 07:48:51;;;;;;;1.95;1.27;;;20.30;34.10;;;;;;4993626;28;20825;-62
2022/03/06 07:51:19;;;;;;;3.72;1.40;;;20.30;34.20;;;;;;4992343;28;20075;-60
2022/03/06 07:53:45;;;;;;;1.98;1.10;;;20.30;34.20;;;;;;4992695;28;20038;-59
2022/03/06 07:56:11;;;;;;;2.58;0.95;;;20.30;34.30;;;;;;4991172;28;21273;-62
2022/03/06 07:58:36;;;;;;;2.38;1.20;;;20.30;34.10;;;;;;4990348;28;20057;-61
2022/03/06 08:01:02;;;;;;;2.35;1.17;;;20.30;34.10;;;;;;4993865;28;21075;-72
2022/03/06 08:03:28;;;;;;;2.58;1.20;;;20.30;34.30;;;;;;4973824;28;20056;-61
2022/03/06 08:05:53;;;;;;;1.88;1.05;;;20.30;34.10;;;;;;4993105;28;20052;-61
2022/03/06 08:08:19;;;;;;;1.35;1.25;;;20.30;34.20;;;;;;4990324;28;20049;-61
2022/03/06 08:10:45;;;;;;;1.00;0.90;;;20.40;34.00;;;;;;4983024;28;20108;-62
2022/03/06 08:13:10;;;;;;;3.95;1.45;;;20.40;34.10;;;;;;4990244;28;20042;-62
2022/03/06 08:15:36;;;;;;;1.92;1.40;;;20.40;34.00;;;;;;4981145;28;20066;-61
2022/03/06 08:18:02;;;;;;;2.30;1.10;;;20.40;34.00;;;;;;4990112;28;20049;-60
2022/03/06 08:20:28;;;;;;;2.20;1.30;;;20.40;34.00;;;;;;4993042;28;20495;-61
2022/03/06 08:22:54;;;;;;;2.67;1.52;;;20.40;33.90;;;;;;4996388;28;20046;-61
2022/03/06 08:25:20;;;;;;;2.67;1.38;;;20.40;33.90;;;;;;4990465;28;20049;-61
2022/03/06 08:27:46;;;;;;;3.35;1.35;;;20.40;33.90;;;;;;4992911;28;20049;-62
2022/03/06 08:30:13;;;;;;;2.35;1.50;;;20.40;33.90;;;;;;4993117;28;20909;-62
2022/03/06 08:32:39;;;;;;;3.38;1.50;;;20.40;33.90;;;;;;4991941;28;20469;-61
2022/03/06 08:35:07;;;;;;;2.70;1.42;;;20.40;33.90;;;;;;4991589;28;20081;-61
2022/03/06 08:37:33;;;;;;;2.70;1.70;;;20.50;34.00;;;;;;4992567;28;20283;-61
2022/03/06 08:39:58;;;;;;;2.92;1.15;;;20.50;34.10;;;;;;4970484;28;20643;-61
2022/03/06 08:42:24;;;;;;;3.42;1.17;;;20.50;34.30;;;;;;4991526;28;20070;-59
2022/03/06 08:44:50;;;;;;;2.15;1.20;;;20.50;34.60;;;;;;4993086;28;20046;-60
2022/03/06 08:47:15;;;;;;;1.10;1.00;;;20.60;34.80;;;;;;4995360;28;20061;-59
2022/03/06 08:49:41;;;;;;;2.38;1.20;;;20.60;34.90;;;;;;4992461;28;20129;-59
2022/03/06 08:52:07;;;;;;;1.17;1.05;;;20.60;34.90;;;;;;4990573;28;20167;-61
2022/03/06 08:54:34;;;;;;;1.77;1.20;;;20.60;34.90;;;;;;4986786;28;20061;-61
2022/03/06 08:56:59;;;;;;;1.88;1.02;;;20.60;34.90;;;;;;4990093;28;20053;-60
2022/03/06 08:59:25;;;;;;;1.67;1.17;;;20.70;35.00;;;;;;4991185;28;20128;-61
2022/03/06 09:01:55;;;;;;;1.10;1.00;;;20.60;35.00;;;;;;4992963;28;20042;-61
2022/03/06 09:04:22;;;;;;;1.33;1.10;;;20.70;35.20;;;;;;4989583;28;20160;-61
2022/03/06 09:06:49;;;;;;;2.30;1.42;;;20.70;35.10;;;;;;5003895;28;20996;-60
2022/03/06 09:09:14;;;;;;;1.35;1.10;;;20.70;35.10;;;;;;4988192;28;20665;-60
2022/03/06 09:11:40;;;;;;;2.35;1.20;;;20.70;35.00;;;;;;4994244;28;20049;-60
2022/03/06 09:14:05;;;;;;;1.30;1.08;;;20.70;35.10;;;;;;4993105;28;20046;-61
2022/03/06 09:16:31;;;;;;;3.00;1.58;;;20.80;35.00;;;;;;4992764;28;20078;-62
2022/03/06 09:18:56;;;;;;;1.33;0.90;;;20.80;35.00;;;;;;4993612;28;20054;-61
2022/03/06 09:21:22;;;;;;;1.20;1.02;;;20.80;35.00;;;;;;5008406;28;20046;-61
2022/03/06 09:23:48;;;;;;;2.28;1.10;;;20.80;34.90;;;;;;4998789;28;20050;-61
2022/03/06 09:26:13;;;;;;;1.75;0.90;;;20.80;34.90;;;;;;4992677;28;20046;-61
2022/03/06 09:28:39;;;;;;;2.25;1.20;;;20.80;35.00;;;;;;4993395;28;20129;-62
2022/03/06 09:31:04;;;;;;;1.52;0.90;;;20.80;34.90;;;;;;4989741;28;20042;-61
2022/03/06 09:33:30;;;;;;;2.00;0.70;;;20.90;35.00;;;;;;4994539;28;20084;-64
2022/03/06 09:35:55;;;;;;;4.05;1.00;;;20.90;35.10;;;;;;4976022;28;20053;-61
2022/03/06 09:38:21;;;;;;;1.45;0.93;;;20.90;35.20;;;;;;4995649;28;20046;-62
2022/03/06 09:40:47;;;;;;;3.53;1.05;;;20.90;35.30;;;;;;4995796;28;20049;-62
2022/03/06 09:43:17;;;;;;;2.45;1.00;;;20.90;35.50;;;;;;5000753;28;20050;-61
2022/03/06 09:45:45;;;;;;;3.05;1.17;;;20.90;35.60;;;;;;4994906;28;20085;-61
2022/03/06 09:48:14;;;;;;;3.03;1.00;;;21.00;35.80;;;;;;4994365;28;20050;-63
2022/03/06 09:50:41;;;;;;;2.08;0.90;;;21.00;35.70;;;;;;5007902;28;20061;-63
2022/03/06 09:53:07;;;;;;;3.53;0.90;;;21.00;36.40;;;;;;4993850;28;20095;-61
2022/03/06 09:55:32;;;;;;;2.03;0.82;;;21.00;35.70;;;;;;4990598;28;20058;-62
2022/03/06 09:57:58;;;;;;;1.52;0.95;;;21.10;35.70;;;;;;4991211;28;20050;-62
2022/03/06 10:00:25;;;;;;;2.10;0.80;;;21.10;35.60;;;;;;4991840;28;20038;-62
2022/03/06 10:02:55;;;;;;;2.05;0.90;;;21.10;35.60;;;;;;4993677;28;20046;-61
2022/03/06 10:05:37;;;;;;;2.10;0.60;;;21.10;35.60;;;;;;4991838;28;20050;-61
2022/03/06 10:08:20;;;;;;;1.50;0.70;;;21.10;35.50;;;;;;4995791;28;20045;-60
2022/03/06 10:10:54;;;;;;;0.90;0.77;;;21.10;35.50;;;;;;4994185;28;20042;-60
2022/03/06 10:13:24;;;;;;;2.05;0.90;;;21.10;35.50;;;;;;4992732;28;20294;-60
2022/03/06 10:15:59;;;;;;;2.97;1.10;;;21.10;35.40;;;;;;4993513;28;20140;-59
2022/03/06 10:18:28;;;;;;;0.98;0.77;;;21.20;35.40;;;;;;4989122;28;20046;-59
2022/03/06 10:20:53;;;;;;;0.93;0.70;;;21.20;35.30;;;;;;4994703;28;20053;-59
2022/03/06 10:23:27;;;;;;;1.83;0.60;;;21.20;35.20;;;;;;4992193;28;20048;-59
2022/03/06 10:26:03;;;;;;;1.90;0.88;;;21.20;35.10;;;;;;4991709;28;20548;-59
2022/03/06 10:28:29;;;;;;;1.70;0.88;;;21.20;35.10;;;;;;4993891;28;20111;-60
2022/03/06 10:31:03;;;;;;;1.10;0.65;;;21.20;35.00;;;;;;4994344;28;20042;-59
2022/03/06 10:33:28;;;;;;;2.78;0.77;;;21.20;34.80;;;;;;4996761;28;20491;-60
2022/03/06 10:35:58;;;;;;;1.10;0.70;;;21.20;34.80;;;;;;4994083;28;20046;-60
2022/03/06 10:38:32;;;;;;;1.75;0.70;;;21.20;34.80;;;;;;4993418;28;20061;-59
2022/03/06 10:41:09;;;;;;;1.23;0.65;;;21.20;34.70;;;;;;4989367;28;20921;-59
2022/03/06 10:43:35;;;;;;;1.45;0.70;;;21.20;34.70;;;;;;4993778;28;20077;-59
2022/03/06 10:46:18;;;;;;;1.27;0.60;;;21.20;34.70;;;;;;4989009;28;20722;-60
2022/03/06 10:48:54;;;;;;;1.50;0.70;;;21.30;34.70;;;;;;4991448;28;20465;-61
2022/03/06 10:51:21;;;;;;;1.85;0.77;;;21.30;34.70;;;;;;4998967;28;20054;-62
2022/03/06 10:53:54;;;;;;;0.93;0.52;;;21.30;34.70;;;;;;4994133;28;20046;-60
2022/03/06 10:56:20;;;;;;;1.17;0.65;;;21.30;34.60;;;;;;4990988;28;20061;-60
2022/03/06 10:58:47;;;;;;;3.35;0.70;;;21.30;34.60;;;;;;4993725;28;20077;-60
2022/03/06 11:01:13;;;;;;;1.30;0.50;;;21.30;34.60;;;;;;4989884;28;20058;-59
2022/03/06 11:03:39;;;;;;;1.10;0.60;;;21.30;34.60;;;;;;4993641;28;20038;-57
2022/03/06 11:06:07;;;;;;;0.50;0.50;;;21.40;35.30;;;;;;4992725;28;20120;-59
2022/03/06 11:08:34;;;;;;;1.15;0.50;;;21.40;34.50;;;;;;4991240;28;20050;-59
2022/03/06 11:11:00;;;;;;;0.90;0.50;;;21.40;34.50;;;;;;4990950;28;20724;-59
2022/03/06 11:13:28;;;;;;;1.35;0.57;;;21.40;34.40;;;;;;4991089;28;20111;-59
2022/03/06 11:15:54;;;;;;;0.60;0.60;;;21.40;34.30;;;;;;4992887;28;20053;-58
2022/03/06 11:18:19;;;;;;;1.02;0.70;;;21.40;34.30;;;;;;4992369;28;20050;-59
2022/03/06 11:20:46;;;;;;;0.93;0.70;;;21.40;34.20;;;;;;4993506;28;20175;-59
2022/03/06 11:23:38;;;;;;;0.75;0.57;;;21.40;34.20;;;;;;4992373;28;20065;-59
2022/03/06 11:26:06;;;;;;;0.50;0.50;;;21.40;34.10;;;;;;5008345;28;20085;-59
2022/03/06 11:28:51;;;;;;;1.10;0.40;;;21.40;34.10;;;;;;4989836;28;20133;-59
2022/03/06 11:31:17;;;;;;;1.13;0.52;;;21.40;34.10;;;;;;5007179;28;20575;-60
2022/03/06 11:33:43;;;;;;;1.92;0.90;;;21.40;34.10;;;;;;4991915;28;20054;-59
2022/03/06 11:36:21;;;;;;;2.20;0.60;;;21.40;34.00;;;;;;4991442;28;20058;-60
2022/03/06 11:38:49;;;;;;;1.15;0.57;;;21.40;34.10;;;;;;4991192;28;20498;-60
2022/03/06 11:41:15;;;;;;;1.15;0.65;;;21.40;34.00;;;;;;4990928;28;20038;-59
2022/03/06 11:43:48;;;;;;;0.60;0.50;;;21.40;34.10;;;;;;4990252;28;20053;-58
2022/03/06 11:46:16;;;;;;;0.98;0.50;;;21.40;34.00;;;;;;4990498;28;20149;-60
2022/03/06 11:48:42;;;;;;;2.30;0.60;;;21.50;34.10;;;;;;4974588;28;20057;-61
2022/03/06 11:51:22;;;;;;;1.80;0.50;;;21.40;34.10;;;;;;4992901;28;20065;-59
2022/03/06 11:53:55;;;;;;;2.05;0.50;;;21.50;34.10;;;;;;4992833;28;20053;-59
2022/03/06 11:56:32;;;;;;;0.63;0.40;;;21.40;34.20;;;;;;4987714;28;20054;-59
2022/03/06 11:58:59;;;;;;;0.40;0.40;;;21.50;34.20;;;;;;4990211;28;20061;-60
2022/03/06 12:01:26;;;;;;;0.93;0.60;;;21.50;34.20;;;;;;4989884;28;20056;-60
2022/03/06 12:03:54;;;;;;;2.33;0.60;;;21.50;34.30;;;;;;4991482;28;20042;-61
2022/03/06 12:06:20;;;;;;;1.95;0.50;;;21.50;34.30;;;;;;4991093;28;20068;-60
2022/03/06 12:08:47;;;;;;;1.02;0.60;;;21.50;34.40;;;;;;4991883;28;20042;-60
2022/03/06 12:11:12;;;;;;;2.45;0.57;;;21.60;34.30;;;;;;4985029;28;20513;-60
2022/03/06 12:13:39;;;;;;;1.33;0.70;;;21.60;34.20;;;;;;4973978;28;20053;-60
2022/03/06 12:16:08;;;;;;;0.60;0.40;;;21.60;34.20;;;;;;4992974;28;20132;-60
2022/03/06 12:18:34;;;;;;;1.05;0.52;;;21.60;34.20;;;;;;4991920;28;20057;-60
2022/03/06 12:21:00;;;;;;;1.85;0.60;;;21.60;34.30;;;;;;4990718;28;20090;-61
2022/03/06 12:23:31;;;;;;;1.00;0.65;;;21.60;34.30;;;;;;4993069;28;20742;-61
2022/03/06 12:25:59;;;;;;;3.55;0.57;;;21.60;34.20;;;;;;4987897;28;20050;-61
2022/03/06 12:28:31;;;;;;;2.42;0.70;;;21.60;34.20;;;;;;4992322;28;20042;-58
2022/03/06 12:30:57;;;;;;;4.03;0.88;;;21.60;34.20;;;;;;4991731;28;20133;-60
2022/03/06 12:33:39;;;;;;;1.88;0.50;;;21.60;34.20;;;;;;4991332;28;20045;-60
2022/03/06 12:36:13;;;;;;;4.18;0.82;;;21.60;34.40;;;;;;4990479;28;20034;-59
2022/03/06 12:38:38;;;;;;;1.05;0.57;;;21.60;34.30;;;;;;4986093;28;20783;-60
2022/03/06 12:41:05;;;;;;;5.85;0.80;;;21.60;34.50;;;;;;4988263;28;20498;-61
2022/03/06 12:43:31;;;;;;;2.45;0.70;;;21.60;34.60;;;;;;4992514;28;20088;-61
2022/03/06 12:45:59;;;;;;;0.70;0.65;;;21.60;34.50;;;;;;4990189;28;20948;-61
2022/03/06 12:48:25;;;;;;;2.33;0.70;;;21.60;34.50;;;;;;4993169;28;20043;-62